sensor_id;sensor_type;location;lat;lon;timestamp;temperature;humidity
16441;DHT22;8330;-33.858;151.184;2023-01-28T00:02:05;28.30;99.90
16441;DHT22;8330;-33.858;151.184;2023-01-28T00:04:36;28.40;99.90
16441;DHT22;8330;-33.858;151.184;2023-01-28T00:07:07;28.50;99.90
16441;DHT22;8330;-33.858;151.184;2023-01-28T00:09:38;28.60;99.90
16441;DHT22;8330;-33.858;151.184;2023-01-28T00:12:08;28.50;99.90
16441;DHT22;8330;-33.858;151.184;2023-01-28T00:14:44;28.60;99.90
16441;DHT22;8330;-33.858;151.184;2023-01-28T00:17:15;28.60;99.90
16441;DHT22;8330;-33.858;151.184;2023-01-28T00:19:48;28.70;99.90
16441;DHT22;8330;-33.858;151.184;2023-01-28T00:22:19;28.70;99.90
16441;DHT22;8330;-33.858;151.184;2023-01-28T00:24:50;28.70;99.90
16441;DHT22;8330;-33.858;151.184;2023-01-28T00:27:21;28.80;99.90
16441;DHT22;8330;-33.858;151.184;2023-01-28T00:29:54;28.90;99.90
16441;DHT22;8330;-33.858;151.184;2023-01-28T00:32:26;29.00;99.90
16441;DHT22;8330;-33.858;151.184;2023-01-28T00:34:57;29.10;99.90
16441;DHT22;8330;-33.858;151.184;2023-01-28T00:37:28;29.10;99.90
16441;DHT22;8330;-33.858;151.184;2023-01-28T00:39:59;29.20;99.90
16441;DHT22;8330;-33.858;151.184;2023-01-28T00:42:30;29.30;99.90
16441;DHT22;8330;-33.858;151.184;2023-01-28T00:45:03;29.40;99.90
16441;DHT22;8330;-33.858;151.184;2023-01-28T00:47:35;29.40;99.90
16441;DHT22;8330;-33.858;151.184;2023-01-28T00:50:07;29.50;99.90
16441;DHT22;8330;-33.858;151.184;2023-01-28T00:52:39;29.60;99.90
16441;DHT22;8330;-33.858;151.184;2023-01-28T00:55:10;29.70;99.90
16441;DHT22;8330;-33.858;151.184;2023-01-28T00:57:41;29.60;99.90
16441;DHT22;8330;-33.858;151.184;2023-01-28T01:00:15;29.70;99.90
16441;DHT22;8330;-33.858;151.184;2023-01-28T01:02:47;29.70;99.90
16441;DHT22;8330;-33.858;151.184;2023-01-28T01:05:18;29.70;99.90
16441;DHT22;8330;-33.858;151.184;2023-01-28T01:07:49;29.70;99.90
16441;DHT22;8330;-33.858;151.184;2023-01-28T01:10:20;29.70;99.90
16441;DHT22;8330;-33.858;151.184;2023-01-28T01:12:51;29.80;99.90
16441;DHT22;8330;-33.858;151.184;2023-01-28T01:15:27;29.90;99.90
16441;DHT22;8330;-33.858;151.184;2023-01-28T01:17:59;29.90;99.90
16441;DHT22;8330;-33.858;151.184;2023-01-28T01:20:30;30.00;99.90
16441;DHT22;8330;-33.858;151.184;2023-01-28T01:23:06;30.00;99.90
16441;DHT22;8330;-33.858;151.184;2023-01-28T01:25:40;30.00;99.90
16441;DHT22;8330;-33.858;151.184;2023-01-28T01:28:11;30.00;99.90
16441;DHT22;8330;-33.858;151.184;2023-01-28T01:30:44;29.90;99.90
16441;DHT22;8330;-33.858;151.184;2023-01-28T01:33:16;30.00;99.90
16441;DHT22;8330;-33.858;151.184;2023-01-28T01:35:53;29.90;99.90
16441;DHT22;8330;-33.858;151.184;2023-01-28T01:38:25;29.80;99.90
16441;DHT22;8330;-33.858;151.184;2023-01-28T01:40:57;29.80;99.90
16441;DHT22;8330;-33.858;151.184;2023-01-28T01:43:46;29.70;99.90
16441;DHT22;8330;-33.858;151.184;2023-01-28T01:46:22;29.70;99.90
16441;DHT22;8330;-33.858;151.184;2023-01-28T01:48:55;29.80;99.90
16441;DHT22;8330;-33.858;151.184;2023-01-28T01:51:29;29.80;99.90
16441;DHT22;8330;-33.858;151.184;2023-01-28T01:54:02;29.90;99.90
16441;DHT22;8330;-33.858;151.184;2023-01-28T01:56:37;29.90;99.90
16441;DHT22;8330;-33.858;151.184;2023-01-28T01:59:11;29.90;99.90
16441;DHT22;8330;-33.858;151.184;2023-01-28T02:01:45;29.90;99.90
16441;DHT22;8330;-33.858;151.184;2023-01-28T02:04:21;29.90;99.90
16441;DHT22;8330;-33.858;151.184;2023-01-28T02:06:53;30.00;99.90
16441;DHT22;8330;-33.858;151.184;2023-01-28T02:09:26;30.00;99.90
16441;DHT22;8330;-33.858;151.184;2023-01-28T02:12:00;30.00;99.90
16441;DHT22;8330;-33.858;151.184;2023-01-28T02:14:36;29.90;99.90
16441;DHT22;8330;-33.858;151.184;2023-01-28T02:17:10;29.80;99.90
16441;DHT22;8330;-33.858;151.184;2023-01-28T02:19:45;29.80;99.90
16441;DHT22;8330;-33.858;151.184;2023-01-28T02:22:40;29.80;99.90
16441;DHT22;8330;-33.858;151.184;2023-01-28T02:28:23;29.60;99.90
16441;DHT22;8330;-33.858;151.184;2023-01-28T02:31:00;29.50;99.90
16441;DHT22;8330;-33.858;151.184;2023-01-28T02:33:38;29.50;99.90
16441;DHT22;8330;-33.858;151.184;2023-01-28T02:36:17;29.40;99.90
16441;DHT22;8330;-33.858;151.184;2023-01-28T02:38:54;29.50;99.90
16441;DHT22;8330;-33.858;151.184;2023-01-28T02:41:31;29.60;99.90
16441;DHT22;8330;-33.858;151.184;2023-01-28T02:44:04;29.60;99.90
16441;DHT22;8330;-33.858;151.184;2023-01-28T02:46:37;29.70;99.90
16441;DHT22;8330;-33.858;151.184;2023-01-28T02:49:26;29.60;99.90
16441;DHT22;8330;-33.858;151.184;2023-01-28T02:52:09;29.60;99.90
16441;DHT22;8330;-33.858;151.184;2023-01-28T02:54:57;29.70;99.90
16441;DHT22;8330;-33.858;151.184;2023-01-28T02:57:33;29.80;99.90
16441;DHT22;8330;-33.858;151.184;2023-01-28T03:00:12;29.80;99.90
16441;DHT22;8330;-33.858;151.184;2023-01-28T03:02:53;29.80;99.90
16441;DHT22;8330;-33.858;151.184;2023-01-28T03:05:31;29.80;99.90
16441;DHT22;8330;-33.858;151.184;2023-01-28T03:08:06;29.80;99.90
16441;DHT22;8330;-33.858;151.184;2023-01-28T03:10:51;29.80;99.90
16441;DHT22;8330;-33.858;151.184;2023-01-28T03:13:39;29.70;99.90
16441;DHT22;8330;-33.858;151.184;2023-01-28T03:16:30;29.80;99.90
16441;DHT22;8330;-33.858;151.184;2023-01-28T03:19:18;29.80;99.90
16441;DHT22;8330;-33.858;151.184;2023-01-28T03:22:06;29.90;99.90
16441;DHT22;8330;-33.858;151.184;2023-01-28T03:24:54;29.90;99.90
16441;DHT22;8330;-33.858;151.184;2023-01-28T03:27:45;30.00;99.90
16441;DHT22;8330;-33.858;151.184;2023-01-28T03:30:39;30.10;99.90
16441;DHT22;8330;-33.858;151.184;2023-01-28T03:33:35;30.10;99.90
16441;DHT22;8330;-33.858;151.184;2023-01-28T03:36:22;30.10;99.90
16441;DHT22;8330;-33.858;151.184;2023-01-28T03:39:09;30.10;99.90
16441;DHT22;8330;-33.858;151.184;2023-01-28T03:41:40;30.10;99.90
16441;DHT22;8330;-33.858;151.184;2023-01-28T03:44:11;30.00;99.90
16441;DHT22;8330;-33.858;151.184;2023-01-28T03:46:58;30.00;99.90
16441;DHT22;8330;-33.858;151.184;2023-01-28T03:49:31;30.00;99.90
16441;DHT22;8330;-33.858;151.184;2023-01-28T03:52:02;30.00;99.90
16441;DHT22;8330;-33.858;151.184;2023-01-28T03:54:33;30.00;99.90
16441;DHT22;8330;-33.858;151.184;2023-01-28T03:57:04;30.00;99.90
16441;DHT22;8330;-33.858;151.184;2023-01-28T03:59:35;30.10;99.90
16441;DHT22;8330;-33.858;151.184;2023-01-28T04:02:06;30.10;99.90
16441;DHT22;8330;-33.858;151.184;2023-01-28T04:04:42;30.10;99.90
16441;DHT22;8330;-33.858;151.184;2023-01-28T04:07:13;30.10;99.90
16441;DHT22;8330;-33.858;151.184;2023-01-28T04:09:44;30.10;99.90
16441;DHT22;8330;-33.858;151.184;2023-01-28T04:12:15;30.30;99.90
16441;DHT22;8330;-33.858;151.184;2023-01-28T04:14:46;30.40;99.90
16441;DHT22;8330;-33.858;151.184;2023-01-28T04:17:17;30.40;99.90
16441;DHT22;8330;-33.858;151.184;2023-01-28T04:19:50;30.50;99.90
16441;DHT22;8330;-33.858;151.184;2023-01-28T04:22:21;30.50;99.90
16441;DHT22;8330;-33.858;151.184;2023-01-28T04:24:51;30.60;99.90
16441;DHT22;8330;-33.858;151.184;2023-01-28T04:27:22;30.70;99.90
16441;DHT22;8330;-33.858;151.184;2023-01-28T04:29:53;30.70;99.90
16441;DHT22;8330;-33.858;151.184;2023-01-28T04:32:25;30.70;99.90
16441;DHT22;8330;-33.858;151.184;2023-01-28T04:34:58;30.70;99.90
16441;DHT22;8330;-33.858;151.184;2023-01-28T04:37:29;30.80;99.90
16441;DHT22;8330;-33.858;151.184;2023-01-28T04:40:00;30.80;99.90
16441;DHT22;8330;-33.858;151.184;2023-01-28T04:42:31;30.80;99.90
16441;DHT22;8330;-33.858;151.184;2023-01-28T04:45:03;30.80;99.90
16441;DHT22;8330;-33.858;151.184;2023-01-28T04:47:35;30.90;99.90
16441;DHT22;8330;-33.858;151.184;2023-01-28T04:50:09;30.90;99.90
16441;DHT22;8330;-33.858;151.184;2023-01-28T04:52:40;30.90;99.90
16441;DHT22;8330;-33.858;151.184;2023-01-28T04:55:11;30.90;99.90
16441;DHT22;8330;-33.858;151.184;2023-01-28T04:57:42;30.90;99.90
16441;DHT22;8330;-33.858;151.184;2023-01-28T05:00:14;30.90;99.90
16441;DHT22;8330;-33.858;151.184;2023-01-28T05:02:46;30.90;99.90
16441;DHT22;8330;-33.858;151.184;2023-01-28T05:05:19;31.00;99.90
16441;DHT22;8330;-33.858;151.184;2023-01-28T05:07:53;31.10;99.90
16441;DHT22;8330;-33.858;151.184;2023-01-28T05:10:25;31.10;99.90
16441;DHT22;8330;-33.858;151.184;2023-01-28T05:12:56;31.10;99.90
16441;DHT22;8330;-33.858;151.184;2023-01-28T05:15:27;31.20;99.90
16441;DHT22;8330;-33.858;151.184;2023-01-28T05:17:59;31.20;99.90
16441;DHT22;8330;-33.858;151.184;2023-01-28T05:20:31;31.30;99.90
16441;DHT22;8330;-33.858;151.184;2023-01-28T05:23:02;31.50;99.90
16441;DHT22;8330;-33.858;151.184;2023-01-28T05:25:33;31.60;99.90
16441;DHT22;8330;-33.858;151.184;2023-01-28T05:28:04;31.70;99.90
16441;DHT22;8330;-33.858;151.184;2023-01-28T05:30:36;31.70;99.90
16441;DHT22;8330;-33.858;151.184;2023-01-28T05:33:07;31.80;99.90
16441;DHT22;8330;-33.858;151.184;2023-01-28T05:35:41;31.80;99.90
16441;DHT22;8330;-33.858;151.184;2023-01-28T05:38:16;31.90;99.90
16441;DHT22;8330;-33.858;151.184;2023-01-28T05:40:48;31.90;99.90
16441;DHT22;8330;-33.858;151.184;2023-01-28T05:43:19;32.00;99.90
16441;DHT22;8330;-33.858;151.184;2023-01-28T05:45:50;31.80;99.90
16441;DHT22;8330;-33.858;151.184;2023-01-28T05:48:22;31.80;99.90
16441;DHT22;8330;-33.858;151.184;2023-01-28T05:50:55;32.00;99.90
16441;DHT22;8330;-33.858;151.184;2023-01-28T05:53:26;32.10;99.90
16441;DHT22;8330;-33.858;151.184;2023-01-28T05:55:57;32.20;99.90
16441;DHT22;8330;-33.858;151.184;2023-01-28T05:58:30;32.40;99.90
16441;DHT22;8330;-33.858;151.184;2023-01-28T06:01:01;32.50;99.90
16441;DHT22;8330;-33.858;151.184;2023-01-28T06:03:32;32.60;99.90
16441;DHT22;8330;-33.858;151.184;2023-01-28T06:06:05;32.50;99.90
16441;DHT22;8330;-33.858;151.184;2023-01-28T06:08:36;32.70;99.90
16441;DHT22;8330;-33.858;151.184;2023-01-28T06:11:07;32.90;99.90
16441;DHT22;8330;-33.858;151.184;2023-01-28T06:13:38;32.90;99.90
16441;DHT22;8330;-33.858;151.184;2023-01-28T06:16:09;33.10;99.90
16441;DHT22;8330;-33.858;151.184;2023-01-28T06:18:40;33.20;99.90
16441;DHT22;8330;-33.858;151.184;2023-01-28T06:21:13;33.10;99.90
16441;DHT22;8330;-33.858;151.184;2023-01-28T06:23:44;33.20;99.90
16441;DHT22;8330;-33.858;151.184;2023-01-28T06:26:15;33.40;99.90
16441;DHT22;8330;-33.858;151.184;2023-01-28T06:28:48;33.60;99.90
16441;DHT22;8330;-33.858;151.184;2023-01-28T06:31:19;33.60;99.90
16441;DHT22;8330;-33.858;151.184;2023-01-28T06:33:50;33.90;99.90
16441;DHT22;8330;-33.858;151.184;2023-01-28T06:36:24;34.00;99.90
16441;DHT22;8330;-33.858;151.184;2023-01-28T06:38:55;34.10;99.90
16441;DHT22;8330;-33.858;151.184;2023-01-28T06:41:26;34.10;99.90
16441;DHT22;8330;-33.858;151.184;2023-01-28T06:43:57;34.30;99.90
16441;DHT22;8330;-33.858;151.184;2023-01-28T06:46:28;34.30;99.90
16441;DHT22;8330;-33.858;151.184;2023-01-28T06:48:59;34.30;99.90
16441;DHT22;8330;-33.858;151.184;2023-01-28T06:51:33;34.20;99.90
16441;DHT22;8330;-33.858;151.184;2023-01-28T06:54:07;34.30;99.90
16441;DHT22;8330;-33.858;151.184;2023-01-28T06:56:41;34.50;99.90
16441;DHT22;8330;-33.858;151.184;2023-01-28T06:59:12;34.80;99.90
16441;DHT22;8330;-33.858;151.184;2023-01-28T07:01:43;34.80;99.90
16441;DHT22;8330;-33.858;151.184;2023-01-28T07:04:14;35.00;99.90
16441;DHT22;8330;-33.858;151.184;2023-01-28T07:06:48;34.90;99.90
16441;DHT22;8330;-33.858;151.184;2023-01-28T07:09:20;35.10;99.90
16441;DHT22;8330;-33.858;151.184;2023-01-28T07:11:50;35.30;99.90
16441;DHT22;8330;-33.858;151.184;2023-01-28T07:14:21;35.20;99.90
16441;DHT22;8330;-33.858;151.184;2023-01-28T07:16:53;35.20;99.90
16441;DHT22;8330;-33.858;151.184;2023-01-28T07:19:24;35.20;99.90
16441;DHT22;8330;-33.858;151.184;2023-01-28T07:21:57;35.20;99.90
16441;DHT22;8330;-33.858;151.184;2023-01-28T07:24:29;34.90;99.90
16441;DHT22;8330;-33.858;151.184;2023-01-28T07:27:02;34.70;99.90
16441;DHT22;8330;-33.858;151.184;2023-01-28T07:29:33;34.30;99.90
16441;DHT22;8330;-33.858;151.184;2023-01-28T07:32:04;33.80;99.90
16441;DHT22;8330;-33.858;151.184;2023-01-28T07:34:36;33.30;99.90
16441;DHT22;8330;-33.858;151.184;2023-01-28T07:37:11;33.00;99.90
16441;DHT22;8330;-33.858;151.184;2023-01-28T07:39:42;32.50;99.90
16441;DHT22;8330;-33.858;151.184;2023-01-28T07:42:13;32.20;99.90
16441;DHT22;8330;-33.858;151.184;2023-01-28T07:44:45;32.00;99.90
16441;DHT22;8330;-33.858;151.184;2023-01-28T07:47:16;31.80;99.90
16441;DHT22;8330;-33.858;151.184;2023-01-28T07:49:47;31.50;99.90
16441;DHT22;8330;-33.858;151.184;2023-01-28T07:52:20;31.40;99.90
16441;DHT22;8330;-33.858;151.184;2023-01-28T07:54:51;31.40;99.90
16441;DHT22;8330;-33.858;151.184;2023-01-28T07:57:22;31.30;99.90
16441;DHT22;8330;-33.858;151.184;2023-01-28T07:59:53;31.10;99.90
16441;DHT22;8330;-33.858;151.184;2023-01-28T08:02:24;31.00;99.90
16441;DHT22;8330;-33.858;151.184;2023-01-28T08:04:56;30.80;99.90
16441;DHT22;8330;-33.858;151.184;2023-01-28T08:07:30;30.60;99.90
16441;DHT22;8330;-33.858;151.184;2023-01-28T08:10:01;30.50;99.90
16441;DHT22;8330;-33.858;151.184;2023-01-28T08:12:33;30.30;99.90
16441;DHT22;8330;-33.858;151.184;2023-01-28T08:15:04;30.20;99.90
16441;DHT22;8330;-33.858;151.184;2023-01-28T08:17:35;30.00;99.90
16441;DHT22;8330;-33.858;151.184;2023-01-28T08:20:07;29.90;99.90
16441;DHT22;8330;-33.858;151.184;2023-01-28T08:22:40;29.80;99.90
16441;DHT22;8330;-33.858;151.184;2023-01-28T08:25:18;29.70;99.90
16441;DHT22;8330;-33.858;151.184;2023-01-28T08:27:51;29.70;99.90
16441;DHT22;8330;-33.858;151.184;2023-01-28T08:30:23;29.60;99.90
16441;DHT22;8330;-33.858;151.184;2023-01-28T08:33:02;29.60;99.90
16441;DHT22;8330;-33.858;151.184;2023-01-28T08:35:33;29.40;99.90
16441;DHT22;8330;-33.858;151.184;2023-01-28T08:38:07;29.40;99.90
16441;DHT22;8330;-33.858;151.184;2023-01-28T08:40:38;29.20;99.90
16441;DHT22;8330;-33.858;151.184;2023-01-28T08:43:10;29.20;99.90
16441;DHT22;8330;-33.858;151.184;2023-01-28T08:45:41;29.00;99.90
16441;DHT22;8330;-33.858;151.184;2023-01-28T08:48:14;28.90;99.90
16441;DHT22;8330;-33.858;151.184;2023-01-28T08:50:47;28.80;99.90
16441;DHT22;8330;-33.858;151.184;2023-01-28T08:53:21;28.70;99.90
16441;DHT22;8330;-33.858;151.184;2023-01-28T08:55:54;28.70;99.90
16441;DHT22;8330;-33.858;151.184;2023-01-28T08:58:25;28.50;99.90
16441;DHT22;8330;-33.858;151.184;2023-01-28T09:00:56;28.50;99.90
16441;DHT22;8330;-33.858;151.184;2023-01-28T09:03:28;28.40;99.90
16441;DHT22;8330;-33.858;151.184;2023-01-28T09:06:01;28.40;99.90
16441;DHT22;8330;-33.858;151.184;2023-01-28T09:08:33;28.40;99.90
16441;DHT22;8330;-33.858;151.184;2023-01-28T09:11:04;28.30;99.90
16441;DHT22;8330;-33.858;151.184;2023-01-28T09:13:35;28.30;99.90
16441;DHT22;8330;-33.858;151.184;2023-01-28T09:16:07;28.20;99.90
16441;DHT22;8330;-33.858;151.184;2023-01-28T09:18:38;28.20;99.90
16441;DHT22;8330;-33.858;151.184;2023-01-28T09:21:11;28.20;99.90
16441;DHT22;8330;-33.858;151.184;2023-01-28T09:23:46;28.10;99.90
16441;DHT22;8330;-33.858;151.184;2023-01-28T09:26:17;28.00;99.90
16441;DHT22;8330;-33.858;151.184;2023-01-28T09:28:48;28.00;99.90
16441;DHT22;8330;-33.858;151.184;2023-01-28T09:31:19;27.90;99.90
16441;DHT22;8330;-33.858;151.184;2023-01-28T09:33:50;27.90;99.90
16441;DHT22;8330;-33.858;151.184;2023-01-28T09:36:24;27.90;99.90
16441;DHT22;8330;-33.858;151.184;2023-01-28T09:38:56;27.90;99.90
16441;DHT22;8330;-33.858;151.184;2023-01-28T09:41:29;27.80;99.90
16441;DHT22;8330;-33.858;151.184;2023-01-28T09:44:18;27.80;99.90
16441;DHT22;8330;-33.858;151.184;2023-01-28T09:46:53;27.70;99.90
16441;DHT22;8330;-33.858;151.184;2023-01-28T09:49:34;27.80;99.90
16441;DHT22;8330;-33.858;151.184;2023-01-28T09:52:12;27.80;99.90
16441;DHT22;8330;-33.858;151.184;2023-01-28T09:54:49;27.70;99.90
16441;DHT22;8330;-33.858;151.184;2023-01-28T09:57:23;27.70;99.90
16441;DHT22;8330;-33.858;151.184;2023-01-28T09:59:58;27.70;99.90
16441;DHT22;8330;-33.858;151.184;2023-01-28T10:02:40;27.70;99.90
16441;DHT22;8330;-33.858;151.184;2023-01-28T10:05:22;27.70;99.90
16441;DHT22;8330;-33.858;151.184;2023-01-28T10:08:06;27.70;99.90
16441;DHT22;8330;-33.858;151.184;2023-01-28T10:10:48;27.70;99.90
16441;DHT22;8330;-33.858;151.184;2023-01-28T10:13:31;27.60;99.90
16441;DHT22;8330;-33.858;151.184;2023-01-28T10:16:24;27.60;99.90
16441;DHT22;8330;-33.858;151.184;2023-01-28T10:19:00;27.60;99.90
16441;DHT22;8330;-33.858;151.184;2023-01-28T10:21:35;27.60;99.90
16441;DHT22;8330;-33.858;151.184;2023-01-28T10:24:13;27.50;99.90
16441;DHT22;8330;-33.858;151.184;2023-01-28T10:26:50;27.60;99.90
16441;DHT22;8330;-33.858;151.184;2023-01-28T10:29:24;27.50;99.90
16441;DHT22;8330;-33.858;151.184;2023-01-28T10:32:01;27.50;99.90
16441;DHT22;8330;-33.858;151.184;2023-01-28T10:34:38;27.50;99.90
16441;DHT22;8330;-33.858;151.184;2023-01-28T10:37:11;27.50;99.90
16441;DHT22;8330;-33.858;151.184;2023-01-28T10:39:43;27.40;99.90
16441;DHT22;8330;-33.858;151.184;2023-01-28T10:42:27;27.40;99.90
16441;DHT22;8330;-33.858;151.184;2023-01-28T10:45:02;27.40;99.90
16441;DHT22;8330;-33.858;151.184;2023-01-28T10:47:42;27.40;99.90
16441;DHT22;8330;-33.858;151.184;2023-01-28T10:50:17;27.40;99.90
16441;DHT22;8330;-33.858;151.184;2023-01-28T10:52:55;27.40;99.90
16441;DHT22;8330;-33.858;151.184;2023-01-28T10:55:28;27.40;99.90
16441;DHT22;8330;-33.858;151.184;2023-01-28T10:58:03;27.30;99.90
16441;DHT22;8330;-33.858;151.184;2023-01-28T11:00:35;27.30;99.90
16441;DHT22;8330;-33.858;151.184;2023-01-28T11:03:17;27.30;99.90
16441;DHT22;8330;-33.858;151.184;2023-01-28T11:05:52;27.40;99.90
16441;DHT22;8330;-33.858;151.184;2023-01-28T11:08:25;27.30;99.90
16441;DHT22;8330;-33.858;151.184;2023-01-28T11:10:56;27.20;99.90
16441;DHT22;8330;-33.858;151.184;2023-01-28T11:13:30;27.20;99.90
16441;DHT22;8330;-33.858;151.184;2023-01-28T11:16:04;27.20;99.90
16441;DHT22;8330;-33.858;151.184;2023-01-28T11:18:39;27.20;99.90
16441;DHT22;8330;-33.858;151.184;2023-01-28T11:21:18;27.20;99.90
16441;DHT22;8330;-33.858;151.184;2023-01-28T11:23:52;27.20;99.90
16441;DHT22;8330;-33.858;151.184;2023-01-28T11:26:24;27.20;99.90
16441;DHT22;8330;-33.858;151.184;2023-01-28T11:28:58;27.30;99.90
16441;DHT22;8330;-33.858;151.184;2023-01-28T11:31:29;27.20;99.90
16441;DHT22;8330;-33.858;151.184;2023-01-28T11:34:07;27.30;99.90
16441;DHT22;8330;-33.858;151.184;2023-01-28T11:36:38;27.20;99.90
16441;DHT22;8330;-33.858;151.184;2023-01-28T11:39:24;27.20;99.90
16441;DHT22;8330;-33.858;151.184;2023-01-28T11:42:10;27.10;99.90
16441;DHT22;8330;-33.858;151.184;2023-01-28T11:44:44;27.00;99.90
16441;DHT22;8330;-33.858;151.184;2023-01-28T11:47:35;27.10;99.90
16441;DHT22;8330;-33.858;151.184;2023-01-28T11:50:37;27.10;99.90
16441;DHT22;8330;-33.858;151.184;2023-01-28T11:53:27;27.10;99.90
16441;DHT22;8330;-33.858;151.184;2023-01-28T11:59:07;27.20;99.90
16441;DHT22;8330;-33.858;151.184;2023-01-28T12:01:47;27.10;99.90
16441;DHT22;8330;-33.858;151.184;2023-01-28T12:04:39;27.10;99.90
16441;DHT22;8330;-33.858;151.184;2023-01-28T12:07:20;27.10;99.90
16441;DHT22;8330;-33.858;151.184;2023-01-28T12:09:57;27.10;99.90
16441;DHT22;8330;-33.858;151.184;2023-01-28T12:12:49;27.10;99.90
16441;DHT22;8330;-33.858;151.184;2023-01-28T12:15:46;27.00;99.90
16441;DHT22;8330;-33.858;151.184;2023-01-28T12:18:39;27.10;99.90
16441;DHT22;8330;-33.858;151.184;2023-01-28T12:21:20;27.00;99.90
16441;DHT22;8330;-33.858;151.184;2023-01-28T12:24:11;27.00;99.90
16441;DHT22;8330;-33.858;151.184;2023-01-28T12:26:50;27.00;99.90
16441;DHT22;8330;-33.858;151.184;2023-01-28T12:29:29;27.00;99.90
16441;DHT22;8330;-33.858;151.184;2023-01-28T12:32:14;27.00;99.90
16441;DHT22;8330;-33.858;151.184;2023-01-28T12:35:15;26.90;99.90
16441;DHT22;8330;-33.858;151.184;2023-01-28T12:38:04;27.00;99.90
16441;DHT22;8330;-33.858;151.184;2023-01-28T12:40:58;26.90;99.90
16441;DHT22;8330;-33.858;151.184;2023-01-28T12:43:47;26.90;99.90
16441;DHT22;8330;-33.858;151.184;2023-01-28T12:46:44;26.90;99.90
16441;DHT22;8330;-33.858;151.184;2023-01-28T12:49:27;26.90;99.90
16441;DHT22;8330;-33.858;151.184;2023-01-28T12:52:06;26.80;99.90
16441;DHT22;8330;-33.858;151.184;2023-01-28T12:54:52;26.80;99.90
16441;DHT22;8330;-33.858;151.184;2023-01-28T12:57:27;26.80;99.90
16441;DHT22;8330;-33.858;151.184;2023-01-28T13:00:05;26.80;99.90
16441;DHT22;8330;-33.858;151.184;2023-01-28T13:02:46;26.80;99.90
16441;DHT22;8330;-33.858;151.184;2023-01-28T13:05:24;26.70;99.90
16441;DHT22;8330;-33.858;151.184;2023-01-28T13:08:02;26.80;99.90
16441;DHT22;8330;-33.858;151.184;2023-01-28T13:10:41;26.80;99.90
16441;DHT22;8330;-33.858;151.184;2023-01-28T13:13:17;26.70;99.90
16441;DHT22;8330;-33.858;151.184;2023-01-28T13:15:50;26.80;99.90
16441;DHT22;8330;-33.858;151.184;2023-01-28T13:18:41;26.80;99.90
16441;DHT22;8330;-33.858;151.184;2023-01-28T13:21:16;26.80;99.90
16441;DHT22;8330;-33.858;151.184;2023-01-28T13:24:21;26.80;99.90
16441;DHT22;8330;-33.858;151.184;2023-01-28T13:26:55;26.70;99.90
16441;DHT22;8330;-33.858;151.184;2023-01-28T13:29:30;26.80;99.90
16441;DHT22;8330;-33.858;151.184;2023-01-28T13:32:27;26.80;99.90
16441;DHT22;8330;-33.858;151.184;2023-01-28T13:34:59;26.80;99.90
16441;DHT22;8330;-33.858;151.184;2023-01-28T13:37:32;26.80;99.90
16441;DHT22;8330;-33.858;151.184;2023-01-28T13:40:20;26.70;99.90
16441;DHT22;8330;-33.858;151.184;2023-01-28T13:43:03;26.70;99.90
16441;DHT22;8330;-33.858;151.184;2023-01-28T13:45:35;26.70;99.90
16441;DHT22;8330;-33.858;151.184;2023-01-28T13:48:21;26.70;99.90
16441;DHT22;8330;-33.858;151.184;2023-01-28T13:50:53;26.70;99.90
16441;DHT22;8330;-33.858;151.184;2023-01-28T13:53:35;26.70;99.90
16441;DHT22;8330;-33.858;151.184;2023-01-28T13:56:20;26.70;99.90
16441;DHT22;8330;-33.858;151.184;2023-01-28T13:59:10;26.70;99.90
16441;DHT22;8330;-33.858;151.184;2023-01-28T14:02:22;26.70;99.90
16441;DHT22;8330;-33.858;151.184;2023-01-28T14:05:29;26.70;99.90
16441;DHT22;8330;-33.858;151.184;2023-01-28T14:08:43;26.70;99.90
16441;DHT22;8330;-33.858;151.184;2023-01-28T14:14:34;26.70;99.90
16441;DHT22;8330;-33.858;151.184;2023-01-28T14:17:13;26.70;99.90
16441;DHT22;8330;-33.858;151.184;2023-01-28T14:19:47;26.70;99.90
16441;DHT22;8330;-33.858;151.184;2023-01-28T14:22:19;26.70;99.90
16441;DHT22;8330;-33.858;151.184;2023-01-28T14:24:52;26.60;99.90
16441;DHT22;8330;-33.858;151.184;2023-01-28T14:27:30;26.60;99.90
16441;DHT22;8330;-33.858;151.184;2023-01-28T14:30:13;26.60;99.90
16441;DHT22;8330;-33.858;151.184;2023-01-28T14:32:47;26.60;99.90
16441;DHT22;8330;-33.858;151.184;2023-01-28T14:35:22;26.50;99.90
16441;DHT22;8330;-33.858;151.184;2023-01-28T14:37:55;26.60;99.90
16441;DHT22;8330;-33.858;151.184;2023-01-28T14:40:27;26.60;99.90
16441;DHT22;8330;-33.858;151.184;2023-01-28T14:43:03;26.60;99.90
16441;DHT22;8330;-33.858;151.184;2023-01-28T14:48:32;26.60;99.90
16441;DHT22;8330;-33.858;151.184;2023-01-28T14:51:33;26.60;99.90
16441;DHT22;8330;-33.858;151.184;2023-01-28T14:54:17;26.60;99.90
16441;DHT22;8330;-33.858;151.184;2023-01-28T14:57:15;26.60;99.90
16441;DHT22;8330;-33.858;151.184;2023-01-28T14:59:55;26.50;99.90
16441;DHT22;8330;-33.858;151.184;2023-01-28T15:02:28;26.50;99.90
16441;DHT22;8330;-33.858;151.184;2023-01-28T15:05:09;26.50;99.90
16441;DHT22;8330;-33.858;151.184;2023-01-28T15:07:44;26.40;99.90
16441;DHT22;8330;-33.858;151.184;2023-01-28T15:10:17;26.50;99.90
16441;DHT22;8330;-33.858;151.184;2023-01-28T15:12:52;26.40;99.90
16441;DHT22;8330;-33.858;151.184;2023-01-28T15:15:31;26.50;99.90
16441;DHT22;8330;-33.858;151.184;2023-01-28T15:18:06;26.50;99.90
16441;DHT22;8330;-33.858;151.184;2023-01-28T15:20:44;26.50;99.90
16441;DHT22;8330;-33.858;151.184;2023-01-28T15:23:19;26.50;99.90
16441;DHT22;8330;-33.858;151.184;2023-01-28T15:25:54;26.50;99.90
16441;DHT22;8330;-33.858;151.184;2023-01-28T15:28:28;26.50;99.90
16441;DHT22;8330;-33.858;151.184;2023-01-28T15:31:02;26.50;99.90
16441;DHT22;8330;-33.858;151.184;2023-01-28T15:33:33;26.50;99.90
16441;DHT22;8330;-33.858;151.184;2023-01-28T15:36:05;26.50;99.90
16441;DHT22;8330;-33.858;151.184;2023-01-28T15:38:36;26.40;99.90
16441;DHT22;8330;-33.858;151.184;2023-01-28T15:41:09;26.50;99.90
16441;DHT22;8330;-33.858;151.184;2023-01-28T15:43:42;26.50;99.90
16441;DHT22;8330;-33.858;151.184;2023-01-28T15:46:18;26.40;99.90
16441;DHT22;8330;-33.858;151.184;2023-01-28T15:48:57;26.50;99.90
16441;DHT22;8330;-33.858;151.184;2023-01-28T15:51:29;26.50;99.90
16441;DHT22;8330;-33.858;151.184;2023-01-28T15:54:02;26.50;99.90
16441;DHT22;8330;-33.858;151.184;2023-01-28T15:56:34;26.50;99.90
16441;DHT22;8330;-33.858;151.184;2023-01-28T15:59:18;26.40;99.90
16441;DHT22;8330;-33.858;151.184;2023-01-28T16:01:51;26.40;99.90
16441;DHT22;8330;-33.858;151.184;2023-01-28T16:04:34;26.40;99.90
16441;DHT22;8330;-33.858;151.184;2023-01-28T16:07:04;26.40;99.90
16441;DHT22;8330;-33.858;151.184;2023-01-28T16:09:37;26.50;99.90